Terminal Aerodrome Forecast
Issued by NWS Charleston, WV

Home | Current Version | Previous Version | Text Only | Print | Product List | Glossary On
Versions: 1 2 3 4 5 6 7 8 9 10 11 12 13 14 15 16 17 18 19 20 21
903
FTUS41 KRLX 200536
TAFEKN
TAF
KEKN 200536Z 2006/2106 00000KT 4SM BR BKN022
     FM201000 00000KT 2SM BR BKN013
     FM201300 00000KT P6SM BKN070
     FM201500 VRB02KT P6SM SCT250=

USA.gov is the U.S. government's official web portal to all federal, state and local government web resources and services.